Time,TemperatureF,DewpointF,PressureIn,WindDirection,WindDirectionDegrees,WindSpeedMPH,WindSpeedGustMPH,Humidity,HourlyPrecipIn,Conditions,Clouds,dailyrainin,SoftwareType,DateUTC
2013-09-14 00:00:00,64.1,60.0,29.88,ESE,117,0.0,0.0,85,0.00,,,0.00,weatherlink.com 1.10,2013-09-14 04:00:00,
2013-09-14 00:15:00,63.8,59.0,29.89,ESE,117,0.0,0.0,83,0.00,,,0.00,weatherlink.com 1.10,2013-09-14 04:15:00,
2013-09-14 00:30:00,63.8,58.0,29.88,ESE,117,0.0,0.0,82,0.00,,,0.00,weatherlink.com 1.10,2013-09-14 04:30:00,
2013-09-14 00:45:00,64.1,58.0,29.89,NW,326,0.0,0.0,81,0.00,,,0.00,weatherlink.com 1.10,2013-09-14 04:45:00,
2013-09-14 01:00:00,64.0,58.0,29.89,SSE,150,0.0,1.0,80,0.00,,,0.00,weatherlink.com 1.10,2013-09-14 05:00:00,
2013-09-14 01:15:00,63.7,57.0,29.89,SSE,150,0.0,0.0,80,0.00,,,0.00,weatherlink.com 1.10,2013-09-14 05:15:00,
2013-09-14 01:30:00,63.8,58.0,29.90,East,100,0.0,1.0,80,0.00,,,0.00,weatherlink.com 1.10,2013-09-14 05:30:00,
2013-09-14 01:45:00,63.5,57.0,29.90,East,88,0.0,3.0,80,0.00,,,0.00,weatherlink.com 1.10,2013-09-14 05:45:00,
2013-09-14 02:00:00,63.5,57.0,29.91,West,264,0.0,1.0,79,0.00,,,0.00,weatherlink.com 1.10,2013-09-14 06:00:00,
2013-09-14 02:15:00,63.0,56.0,29.91,North,6,0.0,2.0,79,0.00,,,0.00,weatherlink.com 1.10,2013-09-14 06:15:00,
2013-09-14 02:30:00,62.7,56.0,29.91,NNE,26,0.0,4.0,79,0.00,,,0.00,weatherlink.com 1.10,2013-09-14 06:30:00,
2013-09-14 02:45:00,62.8,55.0,29.91,SE,130,0.0,4.0,76,0.00,,,0.00,weatherlink.com 1.10,2013-09-14 06:45:00,
2013-09-14 03:01:00,62.5,55.0,29.92,West,281,0.0,2.0,77,0.00,,,0.00,weatherlink.com 1.10,2013-09-14 07:01:00,
2013-09-14 03:16:00,62.1,54.0,29.92,ENE,74,0.0,4.0,76,0.00,,,0.00,weatherlink.com 1.10,2013-09-14 07:16:00,
2013-09-14 03:31:00,61.5,55.0,29.92,ENE,77,1.0,3.0,78,0.00,,,0.00,weatherlink.com 1.10,2013-09-14 07:31:00,
2013-09-14 03:46:00,61.2,54.0,29.92,NE,49,2.0,4.0,77,0.00,,,0.00,weatherlink.com 1.10,2013-09-14 07:46:00,
2013-09-14 04:01:00,60.9,54.0,29.93,ENE,72,0.0,0.0,77,0.00,,,0.00,weatherlink.com 1.10,2013-09-14 08:01:00,
2013-09-14 04:16:00,60.6,54.0,29.93,ESE,121,0.0,2.0,78,0.00,,,0.00,weatherlink.com 1.10,2013-09-14 08:16:00,
2013-09-14 04:31:00,60.1,54.0,29.94,SSE,158,0.0,1.0,79,0.00,,,0.00,weatherlink.com 1.10,2013-09-14 08:31:00,
2013-09-14 04:46:00,60.0,53.0,29.95,NE,50,0.0,3.0,78,0.00,,,0.00,weatherlink.com 1.10,2013-09-14 08:46:00,
2013-09-14 05:01:00,59.7,52.0,29.95,NNE,13,1.0,2.0,77,0.00,,,0.00,weatherlink.com 1.10,2013-09-14 09:01:00,
2013-09-14 05:16:00,59.3,52.0,29.95,ESE,106,0.0,1.0,78,0.00,,,0.00,weatherlink.com 1.10,2013-09-14 09:16:00,
2013-09-14 05:31:00,59.1,53.0,29.95,SSW,201,0.0,1.0,79,0.00,,,0.00,weatherlink.com 1.10,2013-09-14 09:31:00,
2013-09-14 05:46:00,59.0,53.0,29.96,NE,53,0.0,1.0,79,0.00,,,0.00,weatherlink.com 1.10,2013-09-14 09:46:00,
2013-09-14 06:01:00,58.8,53.0,29.96,NE,49,0.0,3.0,80,0.00,,,0.00,weatherlink.com 1.10,2013-09-14 10:01:00,
2013-09-14 06:16:00,58.8,52.0,29.97,NNE,25,0.0,2.0,78,0.00,,,0.00,weatherlink.com 1.10,2013-09-14 10:16:00,
2013-09-14 06:31:00,58.3,52.0,29.97,ENE,71,0.0,0.0,79,0.00,,,0.00,weatherlink.com 1.10,2013-09-14 10:31:00,
2013-09-14 06:46:00,58.2,52.0,29.98,SW,228,0.0,4.0,79,0.00,,,0.00,weatherlink.com 1.10,2013-09-14 10:46:00,
2013-09-14 07:01:00,57.8,52.0,29.99,WSW,246,0.0,0.0,80,0.00,,,0.00,weatherlink.com 1.10,2013-09-14 11:01:00,
2013-09-14 07:16:00,57.3,52.0,30.00,ESE,120,0.0,1.0,82,0.00,,,0.00,weatherlink.com 1.10,2013-09-14 11:16:00,
2013-09-14 07:31:00,57.2,52.0,30.00,ESE,118,0.0,1.0,83,0.00,,,0.00,weatherlink.com 1.10,2013-09-14 11:31:00,
2013-09-14 07:46:00,57.7,52.0,30.01,West,267,0.0,1.0,81,0.00,,,0.00,weatherlink.com 1.10,2013-09-14 11:46:00,
2013-09-14 08:01:00,58.3,53.0,30.01,SSE,149,0.0,1.0,81,0.00,,,0.00,weatherlink.com 1.10,2013-09-14 12:01:00,
2013-09-14 08:16:00,59.1,53.0,30.02,ESE,113,0.0,5.0,79,0.00,,,0.00,weatherlink.com 1.10,2013-09-14 12:16:00,
2013-09-14 08:31:00,60.2,52.0,30.02,WSW,238,0.0,4.0,75,0.00,,,0.00,weatherlink.com 1.10,2013-09-14 12:31:00,
2013-09-14 08:46:00,61.4,53.0,30.03,ENE,70,0.0,3.0,74,0.00,,,0.00,weatherlink.com 1.10,2013-09-14 12:46:00,
2013-09-14 09:01:00,63.3,53.0,30.03,West,271,0.0,8.0,68,0.00,,,0.00,weatherlink.com 1.10,2013-09-14 13:01:00,
2013-09-14 09:16:00,64.7,53.0,30.04,ENE,58,0.0,4.0,67,0.00,,,0.00,weatherlink.com 1.10,2013-09-14 13:16:00,
2013-09-14 09:31:00,65.0,53.0,30.05,NNE,22,0.0,6.0,65,0.00,,,0.00,weatherlink.com 1.10,2013-09-14 13:31:00,
2013-09-14 09:47:00,66.8,54.0,30.05,SSW,203,0.0,4.0,63,0.00,,,0.00,weatherlink.com 1.10,2013-09-14 13:47:00,
2013-09-14 10:02:00,66.8,53.0,30.05,NE,51,0.0,5.0,61,0.00,,,0.00,weatherlink.com 1.10,2013-09-14 14:02:00,
2013-09-14 10:17:00,67.5,51.0,30.06,SW,224,1.0,6.0,55,0.00,,,0.00,weatherlink.com 1.10,2013-09-14 14:17:00,
2013-09-14 10:32:00,68.6,51.0,30.06,South,184,2.0,8.0,54,0.00,,,0.00,weatherlink.com 1.10,2013-09-14 14:32:00,
2013-09-14 10:47:00,69.2,52.0,30.06,SSE,152,1.0,7.0,54,0.00,,,0.00,weatherlink.com 1.10,2013-09-14 14:47:00,
2013-09-14 11:02:00,70.0,52.0,30.06,East,84,1.0,6.0,53,0.00,,,0.00,weatherlink.com 1.10,2013-09-14 15:02:00,
2013-09-14 11:17:00,70.6,51.0,30.06,ENE,64,3.0,7.0,51,0.00,,,0.00,weatherlink.com 1.10,2013-09-14 15:17:00,
2013-09-14 11:32:00,71.7,53.0,30.07,NW,325,0.0,6.0,52,0.00,,,0.00,weatherlink.com 1.10,2013-09-14 15:32:00,
2013-09-14 11:47:00,72.9,54.0,30.06,West,260,1.0,4.0,52,0.00,,,0.00,weatherlink.com 1.10,2013-09-14 15:47:00,
2013-09-14 12:02:00,73.2,53.0,30.06,SSE,162,2.0,4.0,49,0.00,,,0.00,weatherlink.com 1.10,2013-09-14 16:02:00,
2013-09-14 12:17:00,73.6,53.0,30.06,SW,233,2.0,4.0,49,0.00,,,0.00,weatherlink.com 1.10,2013-09-14 16:17:00,
2013-09-14 12:32:00,73.7,53.0,30.07,WNW,290,2.0,4.0,49,0.00,,,0.00,weatherlink.com 1.10,2013-09-14 16:32:00,
2013-09-14 12:47:00,73.5,52.0,30.06,NE,53,0.0,4.0,48,0.00,,,0.00,weatherlink.com 1.10,2013-09-14 16:47:00,
2013-09-14 13:02:00,74.6,53.0,30.06,WSW,248,1.0,4.0,47,0.00,,,0.00,weatherlink.com 1.10,2013-09-14 17:02:00,
2013-09-14 13:17:00,73.8,53.0,30.06,NNW,329,0.0,7.0,49,0.00,,,0.00,weatherlink.com 1.10,2013-09-14 17:17:00,
2013-09-14 13:32:00,75.0,54.0,30.05,NNW,348,2.0,3.0,48,0.00,,,0.00,weatherlink.com 1.10,2013-09-14 17:32:00,
2013-09-14 13:47:00,76.3,56.0,30.05,NW,312,1.0,2.0,50,0.00,,,0.00,weatherlink.com 1.10,2013-09-14 17:47:00,
2013-09-14 14:02:00,76.6,53.0,30.05,NE,56,1.0,5.0,44,0.00,,,0.00,weatherlink.com 1.10,2013-09-14 18:02:00,
2013-09-14 14:17:00,76.1,52.0,30.04,WSW,238,1.0,5.0,43,0.00,,,0.00,weatherlink.com 1.10,2013-09-14 18:17:00,
2013-09-14 14:32:00,77.1,54.0,30.04,South,176,2.0,4.0,45,0.00,,,0.00,weatherlink.com 1.10,2013-09-14 18:32:00,
2013-09-14 14:47:00,77.4,56.0,30.05,ESE,108,1.0,4.0,48,0.00,,,0.00,weatherlink.com 1.10,2013-09-14 18:47:00,
2013-09-14 15:02:00,77.4,55.0,30.04,SSE,157,0.0,2.0,46,0.00,,,0.00,weatherlink.com 1.10,2013-09-14 19:02:00,
2013-09-14 15:17:00,77.3,55.0,30.04,SSE,155,0.0,3.0,46,0.00,,,0.00,weatherlink.com 1.10,2013-09-14 19:17:00,
2013-09-14 15:32:00,77.3,55.0,30.03,WSW,252,0.0,3.0,46,0.00,,,0.00,weatherlink.com 1.10,2013-09-14 19:32:00,
2013-09-14 15:47:00,77.7,56.0,30.03,East,91,0.0,3.0,48,0.00,,,0.00,weatherlink.com 1.10,2013-09-14 19:47:00,
2013-09-14 16:02:00,78.3,57.0,30.03,WNW,294,0.0,2.0,48,0.00,,,0.00,weatherlink.com 1.10,2013-09-14 20:02:00,
2013-09-14 16:17:00,78.1,56.0,30.03,SSW,207,0.0,2.0,46,0.00,,,0.00,weatherlink.com 1.10,2013-09-14 20:17:00,
2013-09-14 16:32:00,77.6,56.0,30.03,WSW,253,0.0,3.0,48,0.00,,,0.00,weatherlink.com 1.10,2013-09-14 20:32:00,
2013-09-14 16:47:00,76.5,55.0,30.04,ENE,78,0.0,3.0,48,0.00,,,0.00,weatherlink.com 1.10,2013-09-14 20:47:00,
2013-09-14 17:03:00,75.2,56.0,30.04,WSW,248,0.0,1.0,51,0.00,,,0.00,weatherlink.com 1.10,2013-09-14 21:03:00,
2013-09-14 17:17:00,75.4,56.0,30.04,SE,131,0.0,1.0,51,0.00,,,0.00,weatherlink.com 1.10,2013-09-14 21:17:00,
2013-09-14 17:32:00,75.0,57.0,30.04,SE,129,0.0,1.0,53,0.00,,,0.00,weatherlink.com 1.10,2013-09-14 21:32:00,
2013-09-14 17:47:00,73.4,56.0,30.05,SSE,152,0.0,2.0,55,0.00,,,0.00,weatherlink.com 1.10,2013-09-14 21:47:00,
2013-09-14 18:02:00,73.1,59.0,30.05,East,96,0.0,0.0,61,0.00,,,0.00,weatherlink.com 1.10,2013-09-14 22:02:00,
2013-09-14 18:17:00,72.1,59.0,30.05,East,96,0.0,0.0,64,0.00,,,0.00,weatherlink.com 1.10,2013-09-14 22:17:00,
2013-09-14 18:32:00,70.7,60.0,30.05,East,96,0.0,1.0,68,0.00,,,0.00,weatherlink.com 1.10,2013-09-14 22:32:00,
2013-09-14 18:47:00,68.9,60.0,30.05,East,96,0.0,0.0,74,0.00,,,0.00,weatherlink.com 1.10,2013-09-14 22:47:00,
2013-09-14 19:03:00,67.5,60.0,30.05,East,96,0.0,0.0,78,0.00,,,0.00,weatherlink.com 1.10,2013-09-14 23:03:00,
2013-09-14 19:18:00,66.4,60.0,30.06,East,96,0.0,0.0,79,0.00,,,0.00,weatherlink.com 1.10,2013-09-14 23:18:00,
2013-09-14 19:33:00,65.1,59.0,30.06,East,96,0.0,0.0,81,0.00,,,0.00,weatherlink.com 1.10,2013-09-14 23:33:00,
2013-09-14 19:48:00,63.9,59.0,30.07,East,96,0.0,0.0,84,0.00,,,0.00,weatherlink.com 1.10,2013-09-14 23:48:00,
2013-09-14 20:03:00,62.9,58.0,30.07,East,96,0.0,0.0,85,0.00,,,0.00,weatherlink.com 1.10,2013-09-15 00:03:00,
2013-09-14 20:18:00,62.0,58.0,30.08,East,96,0.0,0.0,87,0.00,,,0.00,weatherlink.com 1.10,2013-09-15 00:18:00,
2013-09-14 20:33:00,61.4,58.0,30.08,East,96,0.0,0.0,88,0.00,,,0.00,weatherlink.com 1.10,2013-09-15 00:33:00,
2013-09-14 20:48:00,60.8,58.0,30.09,East,96,0.0,0.0,89,0.00,,,0.00,weatherlink.com 1.10,2013-09-15 00:48:00,
2013-09-14 21:03:00,60.3,57.0,30.10,East,96,0.0,0.0,90,0.00,,,0.00,weatherlink.com 1.10,2013-09-15 01:03:00,
2013-09-14 21:18:00,59.9,57.0,30.11,East,96,0.0,0.0,91,0.00,,,0.00,weatherlink.com 1.10,2013-09-15 01:18:00,
2013-09-14 21:33:00,59.5,57.0,30.12,East,96,0.0,0.0,91,0.00,,,0.00,weatherlink.com 1.10,2013-09-15 01:33:00,
2013-09-14 21:48:00,59.0,56.0,30.13,East,96,0.0,0.0,91,0.00,,,0.00,weatherlink.com 1.10,2013-09-15 01:48:00,
2013-09-14 22:03:00,58.6,56.0,30.13,East,96,0.0,0.0,92,0.00,,,0.00,weatherlink.com 1.10,2013-09-15 02:03:00,
2013-09-14 22:18:00,58.3,56.0,30.13,East,96,0.0,0.0,92,0.00,,,0.00,weatherlink.com 1.10,2013-09-15 02:18:00,
2013-09-14 22:33:00,58.0,56.0,30.13,East,96,0.0,0.0,92,0.00,,,0.00,weatherlink.com 1.10,2013-09-15 02:33:00,
2013-09-14 22:48:00,57.7,55.0,30.13,ESE,113,0.0,1.0,92,0.00,,,0.00,weatherlink.com 1.10,2013-09-15 02:48:00,
2013-09-14 23:03:00,57.6,55.0,30.13,ESE,113,0.0,0.0,92,0.00,,,0.00,weatherlink.com 1.10,2013-09-15 03:03:00,
2013-09-14 23:18:00,57.3,55.0,30.14,ESE,113,0.0,0.0,92,0.00,,,0.00,weatherlink.com 1.10,2013-09-15 03:18:00,
2013-09-14 23:33:00,56.9,55.0,30.14,ESE,113,0.0,0.0,92,0.00,,,0.00,weatherlink.com 1.10,2013-09-15 03:33:00,
2013-09-14 23:48:00,56.7,55.0,30.14,ESE,113,0.0,0.0,93,0.00,,,0.00,weatherlink.com 1.10,2013-09-15 03:48:00,